sensor_id;sensor_type;location;lat;lon;timestamp;temperature;humidity
20590;DHT22;10453;50.810;12.540;2023-03-02T00:03:20;-3.40;99.90
20590;DHT22;10453;50.810;12.540;2023-03-02T00:07:37;-3.40;99.90
20590;DHT22;10453;50.810;12.540;2023-03-02T00:11:55;-3.40;99.90
20590;DHT22;10453;50.810;12.540;2023-03-02T00:16:12;-3.40;99.90
20590;DHT22;10453;50.810;12.540;2023-03-02T00:20:29;-3.40;99.90
20590;DHT22;10453;50.810;12.540;2023-03-02T00:24:46;-3.40;99.90
20590;DHT22;10453;50.810;12.540;2023-03-02T00:29:03;-3.40;99.90
20590;DHT22;10453;50.810;12.540;2023-03-02T00:33:21;-3.40;99.90
20590;DHT22;10453;50.810;12.540;2023-03-02T00:37:38;-3.40;99.90
20590;DHT22;10453;50.810;12.540;2023-03-02T00:41:55;-3.40;99.90
20590;DHT22;10453;50.810;12.540;2023-03-02T00:46:18;-3.40;99.90
20590;DHT22;10453;50.810;12.540;2023-03-02T00:50:37;-3.40;99.90
20590;DHT22;10453;50.810;12.540;2023-03-02T00:54:57;-3.30;99.90
20590;DHT22;10453;50.810;12.540;2023-03-02T00:59:14;-3.30;99.90
20590;DHT22;10453;50.810;12.540;2023-03-02T01:03:45;-3.30;99.90
20590;DHT22;10453;50.810;12.540;2023-03-02T01:08:03;-3.40;99.90
20590;DHT22;10453;50.810;12.540;2023-03-02T01:12:20;-3.50;99.90
20590;DHT22;10453;50.810;12.540;2023-03-02T01:16:37;-3.50;99.90
20590;DHT22;10453;50.810;12.540;2023-03-02T01:21:02;-3.50;99.90
20590;DHT22;10453;50.810;12.540;2023-03-02T01:25:20;-3.60;99.90
20590;DHT22;10453;50.810;12.540;2023-03-02T01:29:37;-3.50;99.90
20590;DHT22;10453;50.810;12.540;2023-03-02T01:33:54;-3.50;99.90
20590;DHT22;10453;50.810;12.540;2023-03-02T01:38:12;-3.60;99.90
20590;DHT22;10453;50.810;12.540;2023-03-02T01:42:36;-3.60;99.90
20590;DHT22;10453;50.810;12.540;2023-03-02T01:46:54;-3.60;99.90
20590;DHT22;10453;50.810;12.540;2023-03-02T01:51:14;-3.70;99.90
20590;DHT22;10453;50.810;12.540;2023-03-02T01:55:32;-3.70;99.90
20590;DHT22;10453;50.810;12.540;2023-03-02T01:59:56;-3.80;99.90
20590;DHT22;10453;50.810;12.540;2023-03-02T02:04:15;-3.90;99.90
20590;DHT22;10453;50.810;12.540;2023-03-02T02:08:33;-3.90;99.90
20590;DHT22;10453;50.810;12.540;2023-03-02T02:12:50;-3.90;99.90
20590;DHT22;10453;50.810;12.540;2023-03-02T02:17:08;-3.90;99.90
20590;DHT22;10453;50.810;12.540;2023-03-02T02:21:27;-3.90;99.90
20590;DHT22;10453;50.810;12.540;2023-03-02T02:25:52;-3.80;99.90
20590;DHT22;10453;50.810;12.540;2023-03-02T02:30:13;-3.80;99.90
20590;DHT22;10453;50.810;12.540;2023-03-02T02:34:37;-3.80;99.90
20590;DHT22;10453;50.810;12.540;2023-03-02T02:38:55;-3.70;99.90
20590;DHT22;10453;50.810;12.540;2023-03-02T02:43:14;-3.80;99.90
20590;DHT22;10453;50.810;12.540;2023-03-02T02:47:33;-3.90;99.90
20590;DHT22;10453;50.810;12.540;2023-03-02T02:51:50;-3.90;99.90
20590;DHT22;10453;50.810;12.540;2023-03-02T02:56:08;-4.00;99.90
20590;DHT22;10453;50.810;12.540;2023-03-02T03:00:26;-4.00;99.90
20590;DHT22;10453;50.810;12.540;2023-03-02T03:04:44;-3.90;99.90
20590;DHT22;10453;50.810;12.540;2023-03-02T03:09:01;-4.10;99.90
20590;DHT22;10453;50.810;12.540;2023-03-02T03:13:18;-4.10;99.90
20590;DHT22;10453;50.810;12.540;2023-03-02T03:17:35;-4.10;99.90
20590;DHT22;10453;50.810;12.540;2023-03-02T03:21:55;-4.20;99.90
20590;DHT22;10453;50.810;12.540;2023-03-02T03:26:13;-4.30;99.90
20590;DHT22;10453;50.810;12.540;2023-03-02T03:30:30;-4.30;99.90
20590;DHT22;10453;50.810;12.540;2023-03-02T03:34:48;-4.30;99.90
20590;DHT22;10453;50.810;12.540;2023-03-02T03:39:05;-4.30;99.90
20590;DHT22;10453;50.810;12.540;2023-03-02T03:43:22;-4.40;99.90
20590;DHT22;10453;50.810;12.540;2023-03-02T03:47:39;-4.40;99.90
20590;DHT22;10453;50.810;12.540;2023-03-02T03:51:56;-4.40;99.90
20590;DHT22;10453;50.810;12.540;2023-03-02T03:56:14;-4.40;99.90
20590;DHT22;10453;50.810;12.540;2023-03-02T04:00:31;-4.40;99.90
20590;DHT22;10453;50.810;12.540;2023-03-02T04:04:48;-4.40;99.90
20590;DHT22;10453;50.810;12.540;2023-03-02T04:09:06;-4.50;99.90
20590;DHT22;10453;50.810;12.540;2023-03-02T04:13:23;-4.60;99.90
20590;DHT22;10453;50.810;12.540;2023-03-02T04:17:40;-4.50;99.90
20590;DHT22;10453;50.810;12.540;2023-03-02T04:21:59;-4.50;99.90
20590;DHT22;10453;50.810;12.540;2023-03-02T04:26:19;-4.60;99.90
20590;DHT22;10453;50.810;12.540;2023-03-02T04:30:37;-4.50;99.90
20590;DHT22;10453;50.810;12.540;2023-03-02T04:34:54;-4.50;99.90
20590;DHT22;10453;50.810;12.540;2023-03-02T04:39:14;-4.60;99.90
20590;DHT22;10453;50.810;12.540;2023-03-02T04:43:31;-4.60;99.90
20590;DHT22;10453;50.810;12.540;2023-03-02T04:47:48;-4.70;99.90
20590;DHT22;10453;50.810;12.540;2023-03-02T04:52:05;-4.60;99.90
20590;DHT22;10453;50.810;12.540;2023-03-02T04:56:23;-4.70;99.90
20590;DHT22;10453;50.810;12.540;2023-03-02T05:00:40;-4.70;99.90
20590;DHT22;10453;50.810;12.540;2023-03-02T05:04:57;-4.70;99.90
20590;DHT22;10453;50.810;12.540;2023-03-02T05:09:15;-4.80;99.90
20590;DHT22;10453;50.810;12.540;2023-03-02T05:13:33;-4.80;99.90
20590;DHT22;10453;50.810;12.540;2023-03-02T05:17:50;-4.80;99.90
20590;DHT22;10453;50.810;12.540;2023-03-02T05:22:08;-4.60;99.90
20590;DHT22;10453;50.810;12.540;2023-03-02T05:26:25;-4.70;99.90
20590;DHT22;10453;50.810;12.540;2023-03-02T05:30:42;-4.80;99.90
20590;DHT22;10453;50.810;12.540;2023-03-02T05:34:59;-4.70;99.90
20590;DHT22;10453;50.810;12.540;2023-03-02T05:39:16;-4.70;99.90
20590;DHT22;10453;50.810;12.540;2023-03-02T05:43:33;-4.80;99.90
20590;DHT22;10453;50.810;12.540;2023-03-02T05:47:52;-4.70;99.90
20590;DHT22;10453;50.810;12.540;2023-03-02T05:52:09;-4.70;99.90
20590;DHT22;10453;50.810;12.540;2023-03-02T05:56:26;-4.80;99.90
20590;DHT22;10453;50.810;12.540;2023-03-02T06:00:46;-4.70;99.90
20590;DHT22;10453;50.810;12.540;2023-03-02T06:05:09;-4.70;99.90
20590;DHT22;10453;50.810;12.540;2023-03-02T06:09:26;-4.80;99.90
20590;DHT22;10453;50.810;12.540;2023-03-02T06:13:43;-4.70;99.90
20590;DHT22;10453;50.810;12.540;2023-03-02T06:18:01;-4.60;99.90
20590;DHT22;10453;50.810;12.540;2023-03-02T06:22:18;-4.60;99.90
20590;DHT22;10453;50.810;12.540;2023-03-02T06:26:35;-4.50;99.90
20590;DHT22;10453;50.810;12.540;2023-03-02T06:30:52;-4.60;99.90
20590;DHT22;10453;50.810;12.540;2023-03-02T06:35:10;-4.60;99.90
20590;DHT22;10453;50.810;12.540;2023-03-02T06:39:27;-4.50;99.90
20590;DHT22;10453;50.810;12.540;2023-03-02T06:43:46;-4.40;99.90
20590;DHT22;10453;50.810;12.540;2023-03-02T06:48:03;-4.40;99.90
20590;DHT22;10453;50.810;12.540;2023-03-02T06:52:21;-4.20;99.90
20590;DHT22;10453;50.810;12.540;2023-03-02T06:56:38;-4.10;99.90
20590;DHT22;10453;50.810;12.540;2023-03-02T07:00:57;-3.90;99.90
20590;DHT22;10453;50.810;12.540;2023-03-02T07:05:14;-3.80;99.90
20590;DHT22;10453;50.810;12.540;2023-03-02T07:09:32;-3.60;99.90
20590;DHT22;10453;50.810;12.540;2023-03-02T07:13:49;-3.50;99.90
20590;DHT22;10453;50.810;12.540;2023-03-02T07:18:07;-3.30;99.90
20590;DHT22;10453;50.810;12.540;2023-03-02T07:22:24;-3.20;99.90
20590;DHT22;10453;50.810;12.540;2023-03-02T07:26:41;-3.00;99.90
20590;DHT22;10453;50.810;12.540;2023-03-02T07:30:58;-2.90;99.90
20590;DHT22;10453;50.810;12.540;2023-03-02T07:35:16;-2.70;99.90
20590;DHT22;10453;50.810;12.540;2023-03-02T07:39:33;-2.50;99.90
20590;DHT22;10453;50.810;12.540;2023-03-02T07:43:50;-2.40;99.90
20590;DHT22;10453;50.810;12.540;2023-03-02T07:48:07;-2.20;99.90
20590;DHT22;10453;50.810;12.540;2023-03-02T07:52:24;-2.00;99.90
20590;DHT22;10453;50.810;12.540;2023-03-02T07:56:42;-2.00;99.90
20590;DHT22;10453;50.810;12.540;2023-03-02T08:00:59;-1.80;99.90
20590;DHT22;10453;50.810;12.540;2023-03-02T08:05:16;-1.50;99.90
20590;DHT22;10453;50.810;12.540;2023-03-02T08:09:34;-1.20;99.90
20590;DHT22;10453;50.810;12.540;2023-03-02T08:13:51;-0.80;99.90
20590;DHT22;10453;50.810;12.540;2023-03-02T08:18:08;-0.50;99.90
20590;DHT22;10453;50.810;12.540;2023-03-02T08:22:25;-0.20;99.90
20590;DHT22;10453;50.810;12.540;2023-03-02T08:26:42;0.10;99.90
20590;DHT22;10453;50.810;12.540;2023-03-02T08:31:01;0.40;99.90
20590;DHT22;10453;50.810;12.540;2023-03-02T08:35:18;0.60;99.90
20590;DHT22;10453;50.810;12.540;2023-03-02T08:39:38;0.80;99.90
20590;DHT22;10453;50.810;12.540;2023-03-02T08:43:55;1.00;99.90
20590;DHT22;10453;50.810;12.540;2023-03-02T08:48:12;1.00;99.90
20590;DHT22;10453;50.810;12.540;2023-03-02T08:52:31;1.30;99.90
20590;DHT22;10453;50.810;12.540;2023-03-02T08:56:48;1.60;99.90
20590;DHT22;10453;50.810;12.540;2023-03-02T09:01:12;1.80;99.90
20590;DHT22;10453;50.810;12.540;2023-03-02T09:05:30;1.90;99.90
20590;DHT22;10453;50.810;12.540;2023-03-02T09:09:47;1.80;99.90
20590;DHT22;10453;50.810;12.540;2023-03-02T09:14:04;1.90;99.90
20590;DHT22;10453;50.810;12.540;2023-03-02T09:18:21;2.40;99.90
20590;DHT22;10453;50.810;12.540;2023-03-02T09:22:39;2.50;99.90
20590;DHT22;10453;50.810;12.540;2023-03-02T09:26:57;2.90;99.90
20590;DHT22;10453;50.810;12.540;2023-03-02T09:31:14;3.30;99.90
20590;DHT22;10453;50.810;12.540;2023-03-02T09:35:31;3.50;99.90
20590;DHT22;10453;50.810;12.540;2023-03-02T09:39:48;3.50;99.90
20590;DHT22;10453;50.810;12.540;2023-03-02T09:44:28;3.70;99.90
20590;DHT22;10453;50.810;12.540;2023-03-02T09:53:29;4.30;99.90
20590;DHT22;10453;50.810;12.540;2023-03-02T09:57:49;4.50;99.90
20590;DHT22;10453;50.810;12.540;2023-03-02T10:02:23;4.80;99.90
20590;DHT22;10453;50.810;12.540;2023-03-02T10:06:40;5.30;99.90
20590;DHT22;10453;50.810;12.540;2023-03-02T10:11:10;5.30;99.90
20590;DHT22;10453;50.810;12.540;2023-03-02T10:15:35;5.50;99.90
20590;DHT22;10453;50.810;12.540;2023-03-02T10:20:02;5.90;99.90
20590;DHT22;10453;50.810;12.540;2023-03-02T10:24:31;6.00;99.90
20590;DHT22;10453;50.810;12.540;2023-03-02T10:33:46;6.70;99.90
20590;DHT22;10453;50.810;12.540;2023-03-02T10:38:18;6.70;99.90
20590;DHT22;10453;50.810;12.540;2023-03-02T10:42:37;7.50;99.90
20590;DHT22;10453;50.810;12.540;2023-03-02T10:46:56;8.40;99.20
20590;DHT22;10453;50.810;12.540;2023-03-02T10:51:30;9.60;96.10
20590;DHT22;10453;50.810;12.540;2023-03-02T10:55:49;10.10;88.20
20590;DHT22;10453;50.810;12.540;2023-03-02T11:00:19;10.20;83.20
20590;DHT22;10453;50.810;12.540;2023-03-02T11:04:37;10.50;80.40
20590;DHT22;10453;50.810;12.540;2023-03-02T11:09:03;11.00;81.90
20590;DHT22;10453;50.810;12.540;2023-03-02T11:13:30;11.30;68.60
20590;DHT22;10453;50.810;12.540;2023-03-02T11:18:14;11.10;68.50
20590;DHT22;10453;50.810;12.540;2023-03-02T11:22:40;11.40;66.00
20590;DHT22;10453;50.810;12.540;2023-03-02T11:27:07;11.80;61.10
20590;DHT22;10453;50.810;12.540;2023-03-02T11:31:37;12.00;58.50
20590;DHT22;10453;50.810;12.540;2023-03-02T11:36:10;12.60;57.30
20590;DHT22;10453;50.810;12.540;2023-03-02T11:40:35;12.60;57.00
20590;DHT22;10453;50.810;12.540;2023-03-02T11:45:15;13.10;55.40
20590;DHT22;10453;50.810;12.540;2023-03-02T11:49:42;13.70;55.40
20590;DHT22;10453;50.810;12.540;2023-03-02T11:54:05;12.50;55.80
20590;DHT22;10453;50.810;12.540;2023-03-02T11:58:27;11.10;56.20
20590;DHT22;10453;50.810;12.540;2023-03-02T12:07:32;11.90;56.30
20590;DHT22;10453;50.810;12.540;2023-03-02T12:16:37;12.60;55.20
20590;DHT22;10453;50.810;12.540;2023-03-02T12:34:36;12.20;54.50
20590;DHT22;10453;50.810;12.540;2023-03-02T12:39:42;12.10;56.20
20590;DHT22;10453;50.810;12.540;2023-03-02T12:44:21;12.70;55.90
20590;DHT22;10453;50.810;12.540;2023-03-02T12:48:56;13.00;56.10
20590;DHT22;10453;50.810;12.540;2023-03-02T12:53:17;13.20;54.80
20590;DHT22;10453;50.810;12.540;2023-03-02T12:57:49;12.10;56.00
20590;DHT22;10453;50.810;12.540;2023-03-02T13:02:17;12.20;56.00
20590;DHT22;10453;50.810;12.540;2023-03-02T13:06:36;12.00;56.40
20590;DHT22;10453;50.810;12.540;2023-03-02T13:10:57;10.80;57.80
20590;DHT22;10453;50.810;12.540;2023-03-02T13:15:16;9.90;62.10
20590;DHT22;10453;50.810;12.540;2023-03-02T13:19:34;8.90;62.40
20590;DHT22;10453;50.810;12.540;2023-03-02T13:23:51;8.50;64.70
20590;DHT22;10453;50.810;12.540;2023-03-02T13:28:30;8.60;66.60
20590;DHT22;10453;50.810;12.540;2023-03-02T13:32:47;8.50;66.90
20590;DHT22;10453;50.810;12.540;2023-03-02T13:37:20;8.60;68.20
20590;DHT22;10453;50.810;12.540;2023-03-02T13:41:38;8.60;70.70
20590;DHT22;10453;50.810;12.540;2023-03-02T13:46:04;8.60;71.00
20590;DHT22;10453;50.810;12.540;2023-03-02T13:50:27;8.60;70.80
20590;DHT22;10453;50.810;12.540;2023-03-02T13:54:45;8.60;71.80
20590;DHT22;10453;50.810;12.540;2023-03-02T13:59:07;8.50;73.20
20590;DHT22;10453;50.810;12.540;2023-03-02T14:03:28;8.50;71.70
20590;DHT22;10453;50.810;12.540;2023-03-02T14:07:45;8.40;70.70
20590;DHT22;10453;50.810;12.540;2023-03-02T14:12:04;8.30;71.40
20590;DHT22;10453;50.810;12.540;2023-03-02T14:16:22;8.30;72.00
20590;DHT22;10453;50.810;12.540;2023-03-02T14:20:40;8.30;72.50
20590;DHT22;10453;50.810;12.540;2023-03-02T14:24:57;8.30;72.10
20590;DHT22;10453;50.810;12.540;2023-03-02T14:29:21;8.30;72.60
20590;DHT22;10453;50.810;12.540;2023-03-02T14:33:38;8.30;71.80
20590;DHT22;10453;50.810;12.540;2023-03-02T14:37:56;8.10;69.80
20590;DHT22;10453;50.810;12.540;2023-03-02T14:42:15;8.00;69.10
20590;DHT22;10453;50.810;12.540;2023-03-02T14:46:32;8.00;68.60
20590;DHT22;10453;50.810;12.540;2023-03-02T14:50:50;8.00;70.20
20590;DHT22;10453;50.810;12.540;2023-03-02T14:55:14;8.00;68.10
20590;DHT22;10453;50.810;12.540;2023-03-02T14:59:34;7.90;66.80
20590;DHT22;10453;50.810;12.540;2023-03-02T15:03:51;7.90;66.40
20590;DHT22;10453;50.810;12.540;2023-03-02T15:08:11;7.80;66.10
20590;DHT22;10453;50.810;12.540;2023-03-02T15:12:29;7.80;65.60
20590;DHT22;10453;50.810;12.540;2023-03-02T15:16:46;7.60;65.80
20590;DHT22;10453;50.810;12.540;2023-03-02T15:21:04;7.60;65.90
20590;DHT22;10453;50.810;12.540;2023-03-02T15:25:21;7.60;64.60
20590;DHT22;10453;50.810;12.540;2023-03-02T15:29:45;7.50;63.40
20590;DHT22;10453;50.810;12.540;2023-03-02T15:34:03;7.40;63.50
20590;DHT22;10453;50.810;12.540;2023-03-02T15:38:20;7.40;64.10
20590;DHT22;10453;50.810;12.540;2023-03-02T15:42:37;7.30;63.60
20590;DHT22;10453;50.810;12.540;2023-03-02T15:46:56;7.10;65.70
20590;DHT22;10453;50.810;12.540;2023-03-02T15:51:14;7.10;65.30
20590;DHT22;10453;50.810;12.540;2023-03-02T15:55:31;7.00;66.50
20590;DHT22;10453;50.810;12.540;2023-03-02T15:59:48;6.90;68.10
20590;DHT22;10453;50.810;12.540;2023-03-02T16:04:05;6.90;68.40
20590;DHT22;10453;50.810;12.540;2023-03-02T16:08:22;6.80;69.30
20590;DHT22;10453;50.810;12.540;2023-03-02T16:12:40;6.60;69.30
20590;DHT22;10453;50.810;12.540;2023-03-02T16:16:57;6.50;71.00
20590;DHT22;10453;50.810;12.540;2023-03-02T16:21:14;6.30;72.60
20590;DHT22;10453;50.810;12.540;2023-03-02T16:25:33;6.10;74.10
20590;DHT22;10453;50.810;12.540;2023-03-02T16:29:50;6.00;74.20
20590;DHT22;10453;50.810;12.540;2023-03-02T16:34:08;5.80;76.20
20590;DHT22;10453;50.810;12.540;2023-03-02T16:38:26;5.40;77.90
20590;DHT22;10453;50.810;12.540;2023-03-02T16:42:43;5.30;78.40
20590;DHT22;10453;50.810;12.540;2023-03-02T16:47:00;5.20;83.60
20590;DHT22;10453;50.810;12.540;2023-03-02T16:51:18;4.90;87.30
20590;DHT22;10453;50.810;12.540;2023-03-02T16:55:35;4.70;91.30
20590;DHT22;10453;50.810;12.540;2023-03-02T16:59:53;4.40;93.70
20590;DHT22;10453;50.810;12.540;2023-03-02T17:04:10;4.20;99.90
20590;DHT22;10453;50.810;12.540;2023-03-02T17:08:27;3.90;99.90
20590;DHT22;10453;50.810;12.540;2023-03-02T17:12:44;3.80;99.90
20590;DHT22;10453;50.810;12.540;2023-03-02T17:17:02;3.60;99.90
20590;DHT22;10453;50.810;12.540;2023-03-02T17:21:19;3.40;99.90
20590;DHT22;10453;50.810;12.540;2023-03-02T17:25:36;3.10;99.90
20590;DHT22;10453;50.810;12.540;2023-03-02T17:29:53;2.80;99.90
20590;DHT22;10453;50.810;12.540;2023-03-02T17:34:11;2.60;99.90
20590;DHT22;10453;50.810;12.540;2023-03-02T17:38:28;2.30;99.90
20590;DHT22;10453;50.810;12.540;2023-03-02T17:42:45;2.10;99.90
20590;DHT22;10453;50.810;12.540;2023-03-02T17:47:03;1.90;99.90
20590;DHT22;10453;50.810;12.540;2023-03-02T17:51:23;1.70;99.90
20590;DHT22;10453;50.810;12.540;2023-03-02T17:55:40;1.60;99.90
20590;DHT22;10453;50.810;12.540;2023-03-02T17:59:57;1.40;99.90
20590;DHT22;10453;50.810;12.540;2023-03-02T18:04:14;1.30;99.90
20590;DHT22;10453;50.810;12.540;2023-03-02T18:08:32;1.10;99.90
20590;DHT22;10453;50.810;12.540;2023-03-02T18:12:49;1.00;99.90
20590;DHT22;10453;50.810;12.540;2023-03-02T18:17:10;0.90;99.90
20590;DHT22;10453;50.810;12.540;2023-03-02T18:21:28;0.80;99.90
20590;DHT22;10453;50.810;12.540;2023-03-02T18:25:46;0.60;99.90
20590;DHT22;10453;50.810;12.540;2023-03-02T18:30:03;0.60;99.90
20590;DHT22;10453;50.810;12.540;2023-03-02T18:34:21;0.50;99.90
20590;DHT22;10453;50.810;12.540;2023-03-02T18:38:38;0.50;99.90
20590;DHT22;10453;50.810;12.540;2023-03-02T18:42:55;0.30;99.90
20590;DHT22;10453;50.810;12.540;2023-03-02T18:47:15;0.30;99.90
20590;DHT22;10453;50.810;12.540;2023-03-02T18:51:32;0.20;99.90
20590;DHT22;10453;50.810;12.540;2023-03-02T18:55:53;0.10;99.90
20590;DHT22;10453;50.810;12.540;2023-03-02T19:00:17;0.00;99.90
20590;DHT22;10453;50.810;12.540;2023-03-02T19:04:35;0.00;99.90
20590;DHT22;10453;50.810;12.540;2023-03-02T19:08:53;-0.10;99.90
20590;DHT22;10453;50.810;12.540;2023-03-02T19:13:10;-0.20;99.90
20590;DHT22;10453;50.810;12.540;2023-03-02T19:17:27;-0.30;99.90
20590;DHT22;10453;50.810;12.540;2023-03-02T19:21:45;-0.40;99.90
20590;DHT22;10453;50.810;12.540;2023-03-02T19:26:02;-0.50;99.90
20590;DHT22;10453;50.810;12.540;2023-03-02T19:30:24;-0.50;99.90
20590;DHT22;10453;50.810;12.540;2023-03-02T19:34:42;-0.50;99.90
20590;DHT22;10453;50.810;12.540;2023-03-02T19:39:00;-0.50;99.90
20590;DHT22;10453;50.810;12.540;2023-03-02T19:43:17;-0.50;99.90
20590;DHT22;10453;50.810;12.540;2023-03-02T19:47:36;-0.60;99.90
20590;DHT22;10453;50.810;12.540;2023-03-02T19:51:54;-0.60;99.90
20590;DHT22;10453;50.810;12.540;2023-03-02T19:56:13;-0.60;99.90
20590;DHT22;10453;50.810;12.540;2023-03-02T20:00:32;-0.70;99.90
20590;DHT22;10453;50.810;12.540;2023-03-02T20:04:49;-0.70;99.90
20590;DHT22;10453;50.810;12.540;2023-03-02T20:09:08;-0.70;99.90
20590;DHT22;10453;50.810;12.540;2023-03-02T20:13:26;-0.70;99.90
20590;DHT22;10453;50.810;12.540;2023-03-02T20:17:43;-0.70;99.90
20590;DHT22;10453;50.810;12.540;2023-03-02T20:22:00;-0.70;99.90
20590;DHT22;10453;50.810;12.540;2023-03-02T20:26:21;-0.70;99.90
20590;DHT22;10453;50.810;12.540;2023-03-02T20:30:50;-0.70;99.90
20590;DHT22;10453;50.810;12.540;2023-03-02T20:35:09;-0.80;99.90
20590;DHT22;10453;50.810;12.540;2023-03-02T20:39:30;-0.90;99.90
20590;DHT22;10453;50.810;12.540;2023-03-02T20:43:48;-0.90;99.90
20590;DHT22;10453;50.810;12.540;2023-03-02T20:48:06;-1.00;99.90
20590;DHT22;10453;50.810;12.540;2023-03-02T20:52:23;-1.00;99.90
20590;DHT22;10453;50.810;12.540;2023-03-02T20:56:40;-1.10;99.90
20590;DHT22;10453;50.810;12.540;2023-03-02T21:00:58;-1.20;99.90
20590;DHT22;10453;50.810;12.540;2023-03-02T21:05:17;-1.20;99.90
20590;DHT22;10453;50.810;12.540;2023-03-02T21:09:35;-1.30;99.90
20590;DHT22;10453;50.810;12.540;2023-03-02T21:13:52;-1.40;99.90
20590;DHT22;10453;50.810;12.540;2023-03-02T21:18:11;-1.40;99.90
20590;DHT22;10453;50.810;12.540;2023-03-02T21:22:28;-1.40;99.90
20590;DHT22;10453;50.810;12.540;2023-03-02T21:26:48;-1.40;99.90
20590;DHT22;10453;50.810;12.540;2023-03-02T21:31:05;-1.40;99.90
20590;DHT22;10453;50.810;12.540;2023-03-02T21:35:23;-1.50;99.90
20590;DHT22;10453;50.810;12.540;2023-03-02T21:39:40;-1.50;99.90
20590;DHT22;10453;50.810;12.540;2023-03-02T21:43:58;-1.50;99.90
20590;DHT22;10453;50.810;12.540;2023-03-02T21:48:16;-1.50;99.90
20590;DHT22;10453;50.810;12.540;2023-03-02T21:52:33;-1.50;99.90
20590;DHT22;10453;50.810;12.540;2023-03-02T21:56:50;-1.60;99.90
20590;DHT22;10453;50.810;12.540;2023-03-02T22:01:07;-1.60;99.90
20590;DHT22;10453;50.810;12.540;2023-03-02T22:05:25;-1.70;99.90
20590;DHT22;10453;50.810;12.540;2023-03-02T22:09:42;-1.80;99.90
20590;DHT22;10453;50.810;12.540;2023-03-02T22:14:06;-1.70;99.90
20590;DHT22;10453;50.810;12.540;2023-03-02T22:18:25;-1.80;99.90
20590;DHT22;10453;50.810;12.540;2023-03-02T22:22:43;-1.80;99.90
20590;DHT22;10453;50.810;12.540;2023-03-02T22:27:28;-1.90;99.90
20590;DHT22;10453;50.810;12.540;2023-03-02T22:31:47;-1.90;99.90
20590;DHT22;10453;50.810;12.540;2023-03-02T22:36:13;-1.70;99.90
20590;DHT22;10453;50.810;12.540;2023-03-02T22:40:33;-1.50;99.90
20590;DHT22;10453;50.810;12.540;2023-03-02T22:45:11;-1.20;99.90
20590;DHT22;10453;50.810;12.540;2023-03-02T22:49:31;-0.90;99.90
20590;DHT22;10453;50.810;12.540;2023-03-02T22:53:53;-0.80;99.90
20590;DHT22;10453;50.810;12.540;2023-03-02T22:58:27;-0.70;99.90
20590;DHT22;10453;50.810;12.540;2023-03-02T23:02:45;-0.70;99.90
20590;DHT22;10453;50.810;12.540;2023-03-02T23:07:13;-0.60;99.90
20590;DHT22;10453;50.810;12.540;2023-03-02T23:11:37;-0.60;99.90
20590;DHT22;10453;50.810;12.540;2023-03-02T23:15:55;-0.40;99.90
20590;DHT22;10453;50.810;12.540;2023-03-02T23:20:14;-0.40;99.90
20590;DHT22;10453;50.810;12.540;2023-03-02T23:24:31;-0.40;99.90
20590;DHT22;10453;50.810;12.540;2023-03-02T23:28:49;-0.40;99.90
20590;DHT22;10453;50.810;12.540;2023-03-02T23:33:07;-0.40;99.90
20590;DHT22;10453;50.810;12.540;2023-03-02T23:37:24;-0.30;99.90
20590;DHT22;10453;50.810;12.540;2023-03-02T23:41:41;-0.30;99.90
20590;DHT22;10453;50.810;12.540;2023-03-02T23:45:59;-0.10;99.90
20590;DHT22;10453;50.810;12.540;2023-03-02T23:50:17;-0.10;99.90
20590;DHT22;10453;50.810;12.540;2023-03-02T23:54:34;-0.10;99.90
20590;DHT22;10453;50.810;12.540;2023-03-02T23:58:51;-0.10;99.90
